Terminal Aerodrome Forecast
Issued by NWS

Home | Current Version | Previous Version | Text Only | Print | Product List | Glossary On
Versions: 1 2 3 4 5 6 7 8 9 10 11 12 13
000
FTAK31 PAFA 300541
TAFAQT
TAF
PAQT 300541Z 3006/3106 04008KT 5SM -SHRA BR OVC005
     FM300900 VRB03KT 2SM -SHRA BR OVC005
      TEMPO 3009/3013 -FZRA
     FM301800 25006KT 2SM -SHRA BR OVC006
     FM302000 25008KT 6SM BR OVC010=

USA.gov is the U.S. government's official web portal to all federal, state and local government web resources and services.